Time;durP1;ratioP1;P1;durP2;ratioP2;P2;SDS_P1;SDS_P2;PMS_P1;PMS_P2;Temp;Humidity;BMP_temperature;BMP_pressure;BME280_temperature;BME280_humidity;BME280_pressure;Samples;Min_cycle;Max_cycle;Signal;HPM_P1;HPM_P2
2021/06/03 00:00:28;;;;;;;6.65;3.80;;;;;;;24.38;38.18;101480.06;4949478;28;119506;-66
2021/06/03 00:02:56;;;;;;;7.97;4.22;;;;;;;24.35;38.22;101483.91;4949518;28;124132;-67
2021/06/03 00:05:30;;;;;;;6.45;4.28;;;;;;;24.28;38.54;101489.06;4944820;28;124108;-67
2021/06/03 00:07:57;;;;;;;9.85;4.50;;;;;;;24.25;38.41;101496.59;4946068;28;119806;-67
2021/06/03 00:10:28;;;;;;;7.95;4.38;;;;;;;24.19;38.79;101503.44;4946340;28;119523;-67
2021/06/03 00:12:56;;;;;;;7.55;4.30;;;;;;;24.14;38.85;101504.84;4944190;28;124534;-67
2021/06/03 00:15:24;;;;;;;7.57;4.55;;;;;;;24.07;38.96;101512.66;4943775;28;123880;-67
2021/06/03 00:17:51;;;;;;;6.45;4.50;;;;;;;24.01;39.25;101511.38;4949776;28;119322;-66
2021/06/03 00:20:23;;;;;;;6.22;4.47;;;;;;;23.96;39.47;101518.22;4948746;28;118963;-67
2021/06/03 00:22:51;;;;;;;6.43;4.90;;;;;;;23.93;39.41;101507.69;4948069;28;124327;-67
2021/06/03 00:25:18;;;;;;;5.68;4.20;;;;;;;23.92;39.57;101508.66;4946534;28;124281;-67
2021/06/03 00:27:45;;;;;;;7.53;4.10;;;;;;;23.92;39.58;101511.38;4948108;28;120358;-67
2021/06/03 00:30:13;;;;;;;4.78;3.95;;;;;;;23.88;39.65;101495.44;4947406;28;121126;-66
2021/06/03 00:32:40;;;;;;;6.45;3.67;;;;;;;23.88;39.70;101506.25;4937753;28;124156;-67
2021/06/03 00:35:08;;;;;;;4.50;3.55;;;;;;;23.87;39.89;101509.94;4947483;28;124479;-67
2021/06/03 00:37:35;;;;;;;5.05;3.03;;;;;;;23.88;39.74;101506.25;4948168;28;119476;-66
2021/06/03 00:40:04;;;;;;;4.65;3.10;;;;;;;23.90;39.64;101515.09;4944867;28;119294;-67
2021/06/03 00:42:32;;;;;;;5.50;3.08;;;;;;;23.93;39.64;101502.28;4946722;28;124340;-67
2021/06/03 00:44:59;;;;;;;4.50;3.17;;;;;;;23.95;39.63;101511.09;4959098;23;123894;-68
2021/06/03 00:47:26;;;;;;;3.90;3.20;;;;;;;23.97;39.59;101511.81;4954971;28;118700;-69
2021/06/03 00:49:53;;;;;;;4.18;3.50;;;;;;;23.97;39.88;101509.13;4946075;28;118026;-69
2021/06/03 00:52:20;;;;;;;6.25;3.72;;;;;;;23.98;39.80;101516.22;4943831;28;125158;-69
2021/06/03 00:54:48;;;;;;;4.20;3.25;;;;;;;23.99;40.04;101517.94;4941125;28;124594;-68
2021/06/03 00:57:16;;;;;;;5.97;3.70;;;;;;;23.99;40.00;101523.34;4940438;28;118394;-69
2021/06/03 00:59:43;;;;;;;6.80;3.50;;;;;;;24.00;40.06;101525.94;4945291;28;118367;-69
2021/06/03 01:02:10;;;;;;;5.68;3.80;;;;;;;23.99;40.14;101520.66;4945217;28;124454;-68
2021/06/03 01:04:39;;;;;;;4.82;3.70;;;;;;;23.99;40.04;101526.06;4946123;28;122734;-69
2021/06/03 01:07:06;;;;;;;5.18;3.85;;;;;;;23.96;40.29;101518.22;4941864;28;118852;-68
2021/06/03 01:09:55;;;;;;;5.07;3.60;;;;;;;23.96;40.38;101518.22;4958343;28;117370;-68
2021/06/03 01:12:32;;;;;;;5.00;3.58;;;;;;;23.95;40.58;101522.78;4940263;28;124174;-69
2021/06/03 01:15:04;;;;;;;5.38;3.80;;;;;;;23.94;40.89;101515.66;4939627;28;123810;-69
2021/06/03 01:17:31;;;;;;;7.00;3.80;;;;;;;23.94;40.91;101515.66;4940081;28;121019;-69
2021/06/03 01:19:59;;;;;;;5.93;4.10;;;;;;;23.94;41.22;101520.22;4941560;28;119730;-68
2021/06/03 01:22:41;;;;;;;6.38;4.20;;;;;;;23.92;41.30;101522.19;4958569;28;123452;-69
2021/06/03 01:25:12;;;;;;;6.32;4.18;;;;;;;23.90;41.49;101517.81;4939779;28;124182;-68
2021/06/03 01:27:40;;;;;;;6.28;4.05;;;;;;;23.89;41.65;101516.06;4959222;28;118707;-69
2021/06/03 01:30:17;;;;;;;6.50;4.10;;;;;;;23.88;41.68;101521.63;4944346;28;118019;-69
2021/06/03 01:32:51;;;;;;;6.93;4.00;;;;;;;23.87;41.89;101518.06;4944434;28;124844;-69
2021/06/03 01:35:22;;;;;;;6.83;4.00;;;;;;;23.87;42.08;101520.78;4947679;28;124028;-69
2021/06/03 01:37:51;;;;;;;5.65;4.20;;;;;;;23.87;42.24;101518.06;4929938;28;118847;-68
2021/06/03 01:40:22;;;;;;;7.85;3.55;;;;;;;23.87;42.43;101530.75;4946902;28;119259;-69
2021/06/03 01:42:50;;;;;;;4.82;3.50;;;;;;;23.88;42.52;101525.19;4944801;28;124894;-68
2021/06/03 01:45:18;;;;;;;4.68;3.78;;;;;;;23.86;42.84;101524.47;4947321;28;124776;-68
2021/06/03 01:47:46;;;;;;;5.07;3.70;;;;;;;23.86;42.98;101523.63;4942663;28;118517;-69
2021/06/03 01:50:15;;;;;;;4.63;4.03;;;;;;;23.84;43.08;101526.44;4960022;28;117516;-69
2021/06/03 01:52:44;;;;;;;6.95;3.83;;;;;;;23.84;43.24;101526.44;4943539;28;123621;-69
2021/06/03 01:55:15;;;;;;;4.63;3.67;;;;;;;23.84;43.41;101531.88;4955452;28;123128;-69
2021/06/03 01:57:44;;;;;;;6.93;3.40;;;;;;;23.84;43.53;101531.88;4947828;28;120062;-68
2021/06/03 02:00:27;;;;;;;5.03;3.60;;;;;;;23.85;43.35;101533.59;4943076;28;118489;-69
2021/06/03 02:02:56;;;;;;;5.03;3.95;;;;;;;23.85;43.57;101533.59;4939849;28;124142;-69
2021/06/03 02:05:27;;;;;;;4.68;3.65;;;;;;;23.86;43.40;101529.88;4943314;28;123060;-69
2021/06/03 02:07:57;;;;;;;4.97;3.70;;;;;;;23.85;43.55;101532.75;4936735;28;119601;-69
2021/06/03 02:10:26;;;;;;;6.25;3.80;;;;;;;23.85;43.74;101535.44;4945175;28;118162;-68
2021/06/03 02:13:35;;;;;;;4.05;3.50;;;;;;;23.83;43.38;101541.00;4961501;28;123148;-69
2021/06/03 02:16:15;;;;;;;4.22;3.72;;;;;;;23.84;43.61;101542.69;4956723;28;122074;-68
2021/06/03 02:18:50;;;;;;;6.82;4.05;;;;;;;23.82;43.73;101539.25;4944088;28;118797;-69
2021/06/03 02:21:25;;;;;;;5.32;3.75;;;;;;;23.81;43.74;101536.69;4942263;28;118114;-69
2021/06/03 02:23:57;;;;;;;6.53;3.83;;;;;;;23.78;43.92;101537.81;4947303;28;126414;-69
2021/06/03 02:26:27;;;;;;;5.43;4.63;;;;;;;23.77;43.87;101536.09;4939394;28;123067;-69
2021/06/03 02:29:00;;;;;;;6.28;4.20;;;;;;;23.78;44.04;101543.22;4956298;28;117551;-69
2021/06/03 02:31:33;;;;;;;5.35;4.53;;;;;;;23.76;44.08;101539.78;4944975;28;119832;-69
2021/06/03 02:34:02;;;;;;;6.05;4.18;;;;;;;23.77;44.14;101544.22;4955243;28;124287;-69
2021/06/03 02:36:30;;;;;;;5.00;4.10;;;;;;;23.77;44.31;101544.22;4947076;28;123293;-69
2021/06/03 02:38:58;;;;;;;5.65;4.28;;;;;;;23.75;44.31;101540.78;4939462;28;119597;-69
2021/06/03 02:41:25;;;;;;;7.28;4.30;;;;;;;23.74;44.32;101541.78;4946541;28;117239;-69
2021/06/03 02:43:54;;;;;;;5.00;4.47;;;;;;;23.72;44.47;101549.19;4942830;28;123269;-68
2021/06/03 02:46:23;;;;;;;7.30;4.80;;;;;;;23.70;44.60;101551.19;4947258;28;124631;-69
2021/06/03 02:48:54;;;;;;;7.57;5.05;;;;;;;23.67;44.56;101546.03;4941957;28;119496;-69
2021/06/03 02:51:21;;;;;;;7.45;4.70;;;;;;;23.64;44.71;101546.28;4940766;28;118269;-69
2021/06/03 02:53:49;;;;;;;5.00;4.55;;;;;;;23.61;44.61;101552.00;4959885;28;124280;-68
2021/06/03 02:56:24;;;;;;;7.55;4.60;;;;;;;23.57;44.73;101556.81;4944402;28;124692;-69
2021/06/03 02:58:52;;;;;;;5.85;4.70;;;;;;;23.52;44.74;101561.78;4948048;28;119687;-69
2021/06/03 03:01:21;;;;;;;6.43;4.70;;;;;;;23.48;44.96;101563.88;4950418;28;120175;-68
2021/06/03 03:03:49;;;;;;;6.28;4.82;;;;;;;23.44;45.21;101567.84;4945784;28;98132;-69
2021/06/03 03:06:18;;;;;;;7.80;5.07;;;;;;;23.38;45.34;101570.25;4938359;28;124003;-69
2021/06/03 03:08:46;;;;;;;5.15;4.53;;;;;;;23.33;45.13;101570.66;4947489;28;120044;-68
2021/06/03 03:11:14;;;;;;;5.90;4.82;;;;;;;23.29;45.56;101570.06;4964694;28;118112;-69
2021/06/03 03:13:47;;;;;;;6.88;4.97;;;;;;;23.26;45.63;101574.88;4945649;28;124200;-69
2021/06/03 03:16:17;;;;;;;6.15;4.68;;;;;;;23.24;45.83;101576.84;4954110;28;124766;-69
2021/06/03 03:18:44;;;;;;;6.25;4.80;;;;;;;23.20;45.75;101578.13;4948281;28;119411;-69
2021/06/03 03:21:13;;;;;;;5.63;4.47;;;;;;;23.18;45.96;101574.69;4946844;28;118120;-68
2021/06/03 03:23:44;;;;;;;5.18;4.68;;;;;;;23.17;46.01;101581.06;4948149;28;124563;-71
2021/06/03 03:26:14;;;;;;;5.97;4.75;;;;;;;23.15;46.46;101588.47;4940817;28;123999;-69
2021/06/03 03:28:41;;;;;;;8.73;5.05;;;;;;;23.11;46.27;101583.34;4947420;28;119677;-69
2021/06/03 03:31:08;;;;;;;7.15;5.40;;;;;;;23.08;46.57;101594.41;4960392;28;118781;-69
2021/06/03 03:33:36;;;;;;;6.50;4.90;;;;;;;23.05;46.74;101594.66;4963880;28;124046;-69
2021/06/03 03:36:05;;;;;;;8.35;5.32;;;;;;;23.03;47.04;101602.03;4947623;28;124478;-69
2021/06/03 03:38:39;;;;;;;8.00;5.18;;;;;;;23.00;46.81;101596.91;4945899;28;119311;-69
2021/06/03 03:41:06;;;;;;;7.90;5.25;;;;;;;22.97;46.91;101594.44;4957298;28;118336;-68
2021/06/03 03:43:33;;;;;;;6.43;5.00;;;;;;;22.96;46.79;101606.22;4941908;28;123261;-69
2021/06/03 03:46:00;;;;;;;6.78;5.38;;;;;;;22.93;46.89;101607.34;4943301;28;123367;-69
2021/06/03 03:48:28;;;;;;;6.70;5.18;;;;;;;22.90;47.13;101601.34;4946433;28;120018;-69
2021/06/03 03:50:58;;;;;;;8.88;5.80;;;;;;;22.86;47.30;101599.91;4942563;28;119400;-69
2021/06/03 03:53:33;;;;;;;7.18;5.70;;;;;;;22.85;47.42;101592.78;4940301;28;123932;-69
2021/06/03 03:56:02;;;;;;;6.65;5.50;;;;;;;22.84;47.68;101607.28;4940421;28;123069;-69
2021/06/03 03:58:36;;;;;;;8.80;5.80;;;;;;;22.82;47.81;101603.88;4946769;28;121409;-68
2021/06/03 04:01:05;;;;;;;7.15;5.65;;;;;;;22.79;47.97;101604.13;4947392;28;118083;-69
2021/06/03 04:03:33;;;;;;;7.80;5.78;;;;;;;22.77;48.04;101601.53;4941026;28;122496;-69
2021/06/03 04:06:04;;;;;;;6.20;5.60;;;;;;;22.77;48.33;101603.38;4945964;28;122870;-69
2021/06/03 04:08:33;;;;;;;6.93;6.00;;;;;;;22.77;48.57;101611.50;4946266;28;118447;-68
2021/06/03 04:11:00;;;;;;;9.65;5.78;;;;;;;22.77;48.47;101606.09;4939713;28;118297;-69
2021/06/03 04:13:31;;;;;;;7.28;6.20;;;;;;;22.77;48.67;101600.69;4960217;28;123207;-69
2021/06/03 04:16:03;;;;;;;7.35;6.10;;;;;;;22.77;48.78;101612.34;4940952;28;122064;-69
2021/06/03 04:18:31;;;;;;;7.00;6.22;;;;;;;22.77;48.80;101614.19;4935995;28;120602;-69
2021/06/03 04:20:59;;;;;;;9.10;6.40;;;;;;;22.76;49.05;101615.19;4955960;28;118749;-69
2021/06/03 04:23:29;;;;;;;7.53;6.60;;;;;;;22.73;49.16;101611.78;4947150;28;123593;-69
2021/06/03 04:25:57;;;;;;;8.63;6.63;;;;;;;22.74;49.34;101613.47;4943208;28;122025;-69
2021/06/03 04:28:25;;;;;;;8.48;6.45;;;;;;;22.75;49.33;101619.72;4954453;28;119290;-69
2021/06/03 04:30:52;;;;;;;7.45;6.57;;;;;;;22.77;49.43;101616.91;4946377;28;119167;-69
2021/06/03 04:33:22;;;;;;;8.70;5.93;;;;;;;22.78;49.51;101618.63;4936025;28;123669;-69
2021/06/03 04:35:51;;;;;;;7.03;5.88;;;;;;;22.79;49.50;101631.97;4958535;28;124417;-69
2021/06/03 04:38:18;;;;;;;6.70;6.00;;;;;;;22.82;49.39;101628.19;4941458;28;119988;-69
2021/06/03 04:40:46;;;;;;;6.57;5.78;;;;;;;22.83;49.36;101627.16;4949404;28;120235;-69
2021/06/03 04:43:13;;;;;;;7.55;5.40;;;;;;;22.85;49.40;101630.59;4941460;28;123858;-69
2021/06/03 04:45:40;;;;;;;7.32;5.72;;;;;;;22.85;49.33;101626.06;4946270;28;124630;-69
2021/06/03 04:48:09;;;;;;;7.82;5.57;;;;;;;22.89;49.47;101632.06;4943525;28;119101;-68
2021/06/03 04:50:38;;;;;;;6.97;5.30;;;;;;;22.91;49.42;101635.50;4946528;28;119247;-69
2021/06/03 04:53:05;;;;;;;6.85;5.38;;;;;;;22.94;49.46;101637.94;4946225;28;122791;-69
2021/06/03 04:55:33;;;;;;;6.63;5.50;;;;;;;22.97;49.48;101640.38;4940414;28;122820;-68
2021/06/03 04:58:02;;;;;;;6.82;5.50;;;;;;;23.01;49.41;101647.22;4941325;28;119611;-69
2021/06/03 05:00:31;;;;;;;6.72;5.78;;;;;;;23.04;49.63;101657.81;4954457;28;119241;-69
2021/06/03 05:02:59;;;;;;;8.48;5.75;;;;;;;23.07;49.37;101657.53;4943822;28;123669;-69
2021/06/03 05:05:27;;;;;;;8.82;5.70;;;;;;;23.10;49.51;101668.09;4940073;28;123088;-69
2021/06/03 05:07:55;;;;;;;8.68;6.07;;;;;;;23.12;49.55;101666.13;4941696;28;119437;-69
2021/06/03 05:10:25;;;;;;;7.97;5.95;;;;;;;23.16;49.67;101665.88;4936514;28;119419;-70
2021/06/03 05:12:53;;;;;;;9.55;7.28;;;;;;;23.18;49.63;101663.88;4943811;28;123461;-69
2021/06/03 05:15:20;;;;;;;13.55;6.65;;;;;;;23.23;49.62;101667.06;4934663;28;123558;-69
2021/06/03 05:17:51;;;;;;;8.30;6.32;;;;;;;23.27;49.95;101668.50;4947688;28;119325;-68
2021/06/03 05:20:22;;;;;;;13.98;7.60;;;;;;;23.33;49.92;101673.38;4944079;28;118841;-69
2021/06/03 05:22:51;;;;;;;9.52;7.63;;;;;;;23.39;49.95;101682.81;4948414;28;125784;-69
2021/06/03 05:25:22;;;;;;;13.48;10.07;;;;;;;23.44;49.87;101686.81;4935333;28;123437;-68
2021/06/03 05:27:50;;;;;;;13.23;10.38;;;;;;;23.49;49.83;101684.59;4934610;28;120988;-68
2021/06/03 05:30:21;;;;;;;16.63;11.10;;;;;;;23.56;49.91;101694.88;4941349;28;119398;-69
2021/06/03 05:32:48;;;;;;;14.88;11.65;;;;;;;23.61;49.68;101688.06;4938714;28;124115;-68
2021/06/03 05:35:18;;;;;;;12.48;9.88;;;;;;;23.67;50.04;101697.50;4938884;28;123586;-68
2021/06/03 05:37:46;;;;;;;12.45;10.52;;;;;;;23.74;49.83;101698.69;4944858;28;119643;-69
2021/06/03 05:40:17;;;;;;;11.75;8.85;;;;;;;23.80;49.76;101698.16;4942728;28;119203;-69
2021/06/03 05:42:47;;;;;;;9.73;8.73;;;;;;;23.87;49.66;101693.09;4943020;28;123179;-69
2021/06/03 05:45:15;;;;;;;9.73;7.55;;;;;;;23.95;49.58;101695.97;4944352;28;125870;-69
2021/06/03 05:47:43;;;;;;;8.75;7.50;;;;;;;24.00;49.35;101703.69;4944209;28;118242;-69
2021/06/03 05:50:12;;;;;;;8.15;7.00;;;;;;;24.04;49.31;101705.13;4939713;28;118773;-69
2021/06/03 05:52:40;;;;;;;10.90;7.30;;;;;;;24.07;49.24;101700.28;4945773;28;123536;-69
2021/06/03 05:55:10;;;;;;;8.65;6.82;;;;;;;24.13;49.36;101703.44;4957557;28;123275;-69
2021/06/03 05:57:37;;;;;;;8.32;7.25;;;;;;;24.19;49.13;101703.75;4957964;28;118428;-70
2021/06/03 06:00:16;;;;;;;10.35;7.28;;;;;;;24.24;49.16;101706.91;4964123;28;119709;-70
2021/06/03 06:02:58;;;;;;;8.27;6.60;;;;;;;24.32;49.41;101708.03;4944908;28;124231;-69
2021/06/03 06:08:14;;;;;;;7.57;6.80;;;;;;;24.43;49.00;101711.53;4932392;28;118091;-70
2021/06/03 06:10:43;;;;;;;10.07;6.72;;;;;;;24.48;49.12;101713.81;4947400;28;117916;-70
2021/06/03 06:13:11;;;;;;;13.23;7.38;;;;;;;24.54;49.24;101718.69;4947720;28;125372;-70
2021/06/03 06:15:40;;;;;;;8.30;7.13;;;;;;;24.61;49.23;101714.44;4946627;28;123764;-69
2021/06/03 06:18:08;;;;;;;9.98;7.13;;;;;;;24.65;48.83;101715.84;4962297;28;120045;-70
2021/06/03 06:20:37;;;;;;;8.10;6.60;;;;;;;24.70;48.90;101720.03;4939637;28;119217;-69
2021/06/03 06:23:05;;;;;;;8.63;7.07;;;;;;;24.78;48.77;101725.59;4947222;28;124011;-70
2021/06/03 06:25:33;;;;;;;9.15;7.45;;;;;;;24.84;48.98;101730.44;4947453;28;123837;-70
2021/06/03 06:28:00;;;;;;;11.23;7.18;;;;;;;24.92;48.66;101733.31;4947878;28;119950;-70
2021/06/03 06:30:27;;;;;;;8.70;7.22;;;;;;;24.97;48.90;101735.59;4950057;28;123457;-70
2021/06/03 06:32:55;;;;;;;10.30;7.25;;;;;;;25.04;48.89;101737.59;4949622;28;124240;-70
2021/06/03 06:35:23;;;;;;;8.70;6.88;;;;;;;25.11;48.75;101731.59;4947900;28;124343;-71
2021/06/03 06:37:50;;;;;;;9.38;6.57;;;;;;;25.20;48.87;101733.44;4939842;28;122336;-70
2021/06/03 06:40:18;;;;;;;11.00;7.05;;;;;;;25.29;48.61;101739.91;4962083;28;118159;-71
2021/06/03 06:42:53;;;;;;;8.63;6.72;;;;;;;25.34;48.67;101743.91;4942642;28;124051;-71
2021/06/03 06:45:22;;;;;;;9.02;7.07;;;;;;;25.41;48.49;101745.03;4969210;23;123893;-70
2021/06/03 06:47:50;;;;;;;12.18;6.50;;;;;;;25.47;48.47;101737.31;4942425;28;119562;-71
2021/06/03 06:50:19;;;;;;;8.68;6.60;;;;;;;25.52;48.11;101743.16;4959566;28;118250;-71
2021/06/03 06:52:46;;;;;;;10.18;7.68;;;;;;;25.54;47.98;101743.88;4941638;28;123954;-69
2021/06/03 06:55:13;;;;;;;8.95;7.47;;;;;;;25.55;47.92;101745.59;4945563;28;123739;-71
2021/06/03 06:57:40;;;;;;;8.85;7.00;;;;;;;25.52;47.94;101746.72;4948243;28;120210;-70
2021/06/03 07:00:09;;;;;;;8.15;6.88;;;;;;;25.51;48.14;101755.03;4943632;28;119229;-70
2021/06/03 07:02:37;;;;;;;8.13;7.05;;;;;;;25.51;47.99;101760.44;4949940;28;124089;-70
2021/06/03 07:05:09;;;;;;;10.05;7.68;;;;;;;25.50;48.31;101747.88;4950420;28;124170;-70
2021/06/03 07:07:37;;;;;;;8.52;7.15;;;;;;;25.50;48.40;101758.72;4944229;28;120627;-70
2021/06/03 07:10:07;;;;;;;9.05;7.18;;;;;;;25.51;48.40;101745.03;4945037;28;119242;-70
2021/06/03 07:12:35;;;;;;;12.50;7.88;;;;;;;25.54;48.11;101754.72;4950054;28;123893;-70
2021/06/03 07:15:05;;;;;;;10.48;7.65;;;;;;;25.62;48.46;101757.56;4949480;28;123940;-70
2021/06/03 07:17:32;;;;;;;13.00;7.43;;;;;;;25.70;48.77;101754.97;4950099;28;119440;-70
2021/06/03 07:20:00;;;;;;;10.52;8.10;;;;;;;25.84;49.22;101754.53;4945925;28;118839;-70
2021/06/03 07:22:27;;;;;;;9.48;7.75;;;;;;;26.02;49.22;101759.22;4940082;28;124205;-70
2021/06/03 07:24:54;;;;;;;9.55;7.93;;;;;;;26.22;49.19;101755.44;4941860;28;124367;-70
2021/06/03 07:27:21;;;;;;;9.70;7.85;;;;;;;26.40;48.37;101757.34;4941564;28;119490;-71
2021/06/03 07:29:56;;;;;;;10.60;8.52;;;;;;;26.52;48.17;101753.44;4938002;28;118607;-71
2021/06/03 07:32:25;;;;;;;13.40;7.70;;;;;;;26.63;48.06;101751.53;4941135;28;124753;-71
2021/06/03 07:34:52;;;;;;;12.02;7.70;;;;;;;26.74;47.77;101748.59;4950339;28;123749;-70
2021/06/03 07:37:19;;;;;;;12.00;8.48;;;;;;;26.85;47.91;101745.66;4948198;28;119615;-70
2021/06/03 07:39:46;;;;;;;12.80;8.20;;;;;;;26.98;47.33;101750.72;4932416;28;118893;-70
2021/06/03 07:42:14;;;;;;;9.45;8.07;;;;;;;27.05;46.82;101756.38;4929197;28;124264;-70
2021/06/03 07:44:41;;;;;;;10.27;8.13;;;;;;;27.09;47.04;101763.25;4932609;28;123698;-70
2021/06/03 07:47:09;;;;;;;9.27;8.20;;;;;;;27.15;46.79;101757.16;4938148;28;119256;-70
2021/06/03 07:49:36;;;;;;;9.52;8.50;;;;;;;27.24;46.83;101761.69;4947891;28;118359;-71
2021/06/03 07:52:03;;;;;;;11.10;8.98;;;;;;;27.34;46.69;101757.03;4945063;28;124052;-70
2021/06/03 07:54:31;;;;;;;9.65;8.25;;;;;;;27.48;46.84;101752.03;4940306;28;123760;-71
2021/06/03 07:56:58;;;;;;;10.52;8.13;;;;;;;27.63;46.63;101761.31;4945845;28;121000;-70
2021/06/03 07:59:26;;;;;;;11.50;8.18;;;;;;;27.76;46.10;101756.34;4945445;28;119875;-71
2021/06/03 08:01:53;;;;;;;12.48;8.98;;;;;;;27.85;45.87;101753.66;4950693;28;124376;-70
2021/06/03 08:04:21;;;;;;;10.38;8.48;;;;;;;27.93;46.04;101767.34;4947066;28;124080;-71
2021/06/03 08:06:48;;;;;;;11.57;8.98;;;;;;;27.98;45.49;101769.59;4936589;28;119147;-70
2021/06/03 08:09:15;;;;;;;11.82;8.75;;;;;;;27.98;45.27;101762.28;4948945;28;117873;-70
2021/06/03 08:11:44;;;;;;;12.07;8.48;;;;;;;27.99;45.27;101766.72;4946527;28;123296;-70
2021/06/03 08:14:12;;;;;;;9.43;7.53;;;;;;;28.00;45.37;101762.97;4951556;28;122689;-70
2021/06/03 08:16:40;;;;;;;12.25;8.45;;;;;;;28.06;45.80;101767.75;4939441;28;119145;-70
2021/06/03 08:19:07;;;;;;;10.90;8.32;;;;;;;28.17;45.38;101779.41;4950951;28;118272;-70
2021/06/03 08:21:35;;;;;;;10.93;7.80;;;;;;;28.24;45.73;101770.41;4937954;28;124197;-71
2021/06/03 08:24:03;;;;;;;10.40;7.45;;;;;;;28.32;45.47;101769.59;4933587;28;124722;-71
2021/06/03 08:26:30;;;;;;;8.32;7.03;;;;;;;28.39;45.33;101767.94;4935215;28;119566;-70
2021/06/03 08:28:57;;;;;;;10.25;7.28;;;;;;;28.48;45.23;101777.84;4935435;28;119314;-70
2021/06/03 08:31:26;;;;;;;9.63;7.40;;;;;;;28.57;45.14;101775.19;4934957;28;124299;-71
2021/06/03 08:33:54;;;;;;;8.20;6.47;;;;;;;28.66;44.90;101776.91;4937230;28;124366;-70
2021/06/03 08:36:23;;;;;;;9.48;6.25;;;;;;;28.77;45.15;101779.34;4943434;28;118262;-70
2021/06/03 08:38:50;;;;;;;7.47;6.10;;;;;;;28.90;44.56;101782.44;4948605;28;119606;-70
2021/06/03 08:41:18;;;;;;;8.63;5.85;;;;;;;29.04;44.58;101782.81;4947951;28;123850;-71
2021/06/03 08:43:46;;;;;;;8.30;5.30;;;;;;;29.16;43.97;101786.97;4944108;28;124561;-70
2021/06/03 08:46:13;;;;;;;10.50;5.75;;;;;;;29.27;43.93;101783.91;4950538;28;120357;-70
2021/06/03 08:48:41;;;;;;;7.43;6.60;;;;;;;29.38;43.66;101785.41;4946928;28;119490;-71
2021/06/03 08:51:08;;;;;;;7.22;6.35;;;;;;;29.47;43.92;101787.13;4944198;28;124611;-70
2021/06/03 08:53:36;;;;;;;9.48;6.90;;;;;;;29.53;43.40;101796.50;4960528;28;123306;-71
2021/06/03 08:56:19;;;;;;;12.10;7.10;;;;;;;29.58;43.55;101802.31;4941641;28;119453;-73
2021/06/03 08:58:51;;;;;;;9.55;7.15;;;;;;;29.59;43.23;101793.13;4941456;28;119065;-70
2021/06/03 09:01:19;;;;;;;13.35;7.90;;;;;;;29.61;43.23;101791.06;4944842;28;124314;-71
2021/06/03 09:03:47;;;;;;;8.77;7.93;;;;;;;29.63;43.26;101788.13;4947813;28;125119;-70
2021/06/03 09:06:16;;;;;;;10.35;7.72;;;;;;;29.65;43.65;101789.69;4949095;28;118224;-70
2021/06/03 09:09:04;;;;;;;9.82;7.70;;;;;;;29.68;43.36;101797.53;4963755;28;119036;-71
2021/06/03 09:11:32;;;;;;;10.23;8.10;;;;;;;29.74;43.17;101800.63;4947520;28;123999;-71
2021/06/03 09:14:06;;;;;;;10.30;6.97;;;;;;;29.78;43.26;101796.53;4950342;28;124489;-71
2021/06/03 09:16:35;;;;;;;9.15;7.53;;;;;;;29.81;42.78;101801.66;4947124;28;119342;-70
2021/06/03 09:19:13;;;;;;;11.80;7.78;;;;;;;29.78;42.56;101796.53;4963919;28;117817;-71
2021/06/03 09:21:44;;;;;;;;;;;;;;;29.74;42.55;101800.63;4950119;28;124243;-70
2021/06/03 09:24:14;;;;;;;9.35;6.75;;;;;;;29.75;42.29;101802.34;4948246;28;124339;-70
2021/06/03 09:26:44;;;;;;;10.15;7.63;;;;;;;29.73;42.46;101802.53;4940113;28;120172;-71
2021/06/03 09:29:14;;;;;;;9.20;7.07;;;;;;;29.67;42.35;101812.22;4946162;28;119364;-71
2021/06/03 09:31:41;;;;;;;10.32;7.47;;;;;;;29.59;42.68;101806.78;4944927;28;125098;-70
2021/06/03 09:34:18;;;;;;;10.20;8.05;;;;;;;29.55;42.74;101802.66;4942399;28;124120;-69
2021/06/03 09:37:07;;;;;;;9.80;7.32;;;;;;;29.53;43.21;101815.63;4964851;28;119171;-69
2021/06/03 09:39:39;;;;;;;8.38;7.47;;;;;;;29.59;43.37;101804.03;4937160;28;121519;-70
2021/06/03 09:42:19;;;;;;;9.48;8.10;;;;;;;29.67;43.47;101804.03;4948170;28;124227;-69
2021/06/03 09:44:51;;;;;;;11.32;8.90;;;;;;;29.74;43.21;101806.09;4936042;28;123698;-70
2021/06/03 09:47:33;;;;;;;12.40;9.63;;;;;;;29.72;42.65;101810.84;4936112;28;119800;-69
2021/06/03 09:50:00;;;;;;;11.13;8.57;;;;;;;29.70;43.25;101809.16;4938479;28;119093;-70
2021/06/03 09:52:35;;;;;;;12.60;8.30;;;;;;;29.76;43.76;101804.03;4934189;28;124888;-70
2021/06/03 09:55:11;;;;;;;10.98;8.48;;;;;;;29.92;43.43;101814.09;4939311;28;123836;-70
2021/06/03 09:57:41;;;;;;;11.75;8.65;;;;;;;30.03;42.97;101813.75;4938079;28;119142;-69
2021/06/03 10:00:10;;;;;;;11.85;7.85;;;;;;;30.08;42.90;101808.59;4939188;28;119647;-69
2021/06/03 10:02:43;;;;;;;12.00;8.98;;;;;;;30.11;42.50;101812.88;4942678;28;124148;-70
2021/06/03 10:05:13;;;;;;;10.32;8.43;;;;;;;30.12;42.38;101809.09;4942248;28;123975;-70
2021/06/03 10:07:54;;;;;;;11.98;8.40;;;;;;;30.08;42.48;101803.13;4938635;28;120023;-70
2021/06/03 10:10:22;;;;;;;10.57;9.30;;;;;;;30.11;42.44;101800.06;4940817;28;119591;-70
2021/06/03 10:12:50;;;;;;;13.48;8.77;;;;;;;30.11;42.31;101801.94;4933769;28;124781;-70
2021/06/03 10:15:21;;;;;;;11.63;8.95;;;;;;;30.06;42.40;101800.59;4947219;28;123809;-70
2021/06/03 10:17:58;;;;;;;10.57;8.75;;;;;;;30.06;42.66;101800.59;4935989;28;119241;-70
2021/06/03 10:20:46;;;;;;;12.82;9.13;;;;;;;30.04;42.58;101805.34;4935397;28;119375;-70
2021/06/03 10:23:28;;;;;;;12.07;8.98;;;;;;;30.01;42.68;101796.69;4945222;28;124326;-70
2021/06/03 10:26:04;;;;;;;10.73;7.93;;;;;;;29.96;42.60;101805.38;4938854;28;124121;-71
2021/06/03 10:28:33;;;;;;;11.35;8.93;;;;;;;29.94;42.34;101796.50;4940346;28;120517;-70
2021/06/03 10:31:07;;;;;;;10.85;8.13;;;;;;;29.92;42.97;101804.03;4944903;28;120071;-70
2021/06/03 10:33:39;;;;;;;10.57;7.97;;;;;;;29.92;43.07;101809.50;4946865;28;124292;-70
2021/06/03 10:36:10;;;;;;;13.32;8.77;;;;;;;29.90;42.70;101811.53;4941567;28;124108;-71
2021/06/03 10:38:37;;;;;;;10.90;8.43;;;;;;;29.83;42.75;101816.00;4934053;28;120015;-70
2021/06/03 10:41:08;;;;;;;10.52;8.90;;;;;;;29.76;42.77;101809.50;4941098;28;119478;-70
2021/06/03 10:43:37;;;;;;;10.65;8.55;;;;;;;29.69;42.85;101815.63;4936008;28;124416;-70
2021/06/03 10:46:05;;;;;;;9.77;8.27;;;;;;;29.62;43.16;101806.41;4940205;28;124515;-70
2021/06/03 10:52:09;;;;;;;12.00;8.23;;;;;;;29.38;43.83;101807.25;5058999;27;96676;-70
2021/06/03 10:54:52;;;;;;;14.88;8.50;;;;;;;29.33;43.78;101808.78;5034887;27;107345;-70
2021/06/03 10:57:24;;;;;;;10.35;8.80;;;;;;;29.34;43.77;101810.50;5042947;27;123990;-70
2021/06/03 10:59:52;;;;;;;10.90;8.50;;;;;;;29.35;44.24;101810.34;5041787;27;124329;-70
2021/06/03 11:02:19;;;;;;;11.82;9.43;;;;;;;29.40;44.27;101804.34;5045917;27;107955;-69
2021/06/03 11:04:47;;;;;;;15.45;9.63;;;;;;;29.42;44.13;101813.22;5045446;27;107300;-67
2021/06/03 11:07:14;;;;;;;10.25;8.82;;;;;;;29.43;44.59;101806.75;5039141;27;124017;-69
2021/06/03 11:09:44;;;;;;;13.15;9.65;;;;;;;29.49;44.45;101808.81;5033879;27;123906;-68
2021/06/03 11:12:14;;;;;;;10.30;8.25;;;;;;;29.53;44.17;101810.16;5034296;27;107425;-68
2021/06/03 11:15:03;;;;;;;12.20;8.60;;;;;;;29.54;43.60;101817.34;5032211;27;107117;-68
2021/06/03 11:17:50;;;;;;;9.32;8.00;;;;;;;29.51;43.70;101823.13;5025313;27;123239;-68
2021/06/03 11:20:32;;;;;;;10.02;8.93;;;;;;;29.48;44.15;101823.50;5040293;27;123964;-69
2021/06/03 11:23:34;;;;;;;11.65;9.18;;;;;;;29.49;44.04;101817.00;5034520;27;107496;-68
2021/06/03 11:26:03;;;;;;;15.40;10.52;;;;;;;29.50;44.28;101810.53;5038707;27;106992;-69
2021/06/03 11:28:31;;;;;;;13.70;10.40;;;;;;;29.45;44.39;101818.38;5039458;27;123818;-68
2021/06/03 11:31:22;;;;;;;14.50;11.27;;;;;;;29.38;44.36;101806.41;5038980;27;125611;-68
2021/06/03 11:34:14;;;;;;;13.77;10.95;;;;;;;29.28;44.73;101806.56;5037430;27;107902;-69